AirNav   Air Wisconsin Up To $57,000 Bonus
 
 581 users online  

VT60 Hulett Landing Strip
West Pawlett, Vermont, USA

GOING TO WEST PAWLETT?


FAA INFORMATION EFFECTIVE 02 DECEMBER 2021

Location

FAA Identifier: VT60
Lat/Long: 43-19-48.2600N 073-14-33.3800W
43-19.804333N 073-14.556333W
43.3300722,-73.2426056
(estimated)
Elevation: 720 ft. / 219 m (estimated)
Variation: 15W (1995)
From city: 2 miles S of WEST PAWLETT, VT
Time zone: UTC -5 (UTC -4 during Daylight Saving Time)
Zip code: 05775

Airport Operations

Airport use: Private use. Permission required prior to landing
Activation date: 08/1998
Control tower: no
ARTCC: BOSTON CENTER
FSS: BURLINGTON FLIGHT SERVICE STATION
Attendance: UNATNDD
Segmented circle: no

Airport Communications

WX ASOS at GFL (16 nm W): 119.925 (518-743-1728)
WX AWOS-3PT at RUT (18 nm NE): 118.375 (802-747-3044)

Nearby radio navigation aids

VOR radial/distance  VOR name  Freq  Var
CAMr026/20.6CAMBRIDGE VOR/DME115.0014W

 
NDB name  Hdg/Dist  Freq  Var  ID
SMUTO224/25.822115WDYO -.. -.-- ---
CLAREMONT282/38.123316WCNH -.-. -. ....

Airport Services

Runway Information

Runway 2/20

Dimensions: 1125 x 75 ft. / 343 x 23 m
Surface: turf
RUNWAY 2  RUNWAY 20
Traffic pattern: leftleft

Airport Ownership and Management from official FAA records

Ownership: Privately-owned
Owner: KATHLEEN HULETT BAILEY
978 ROUTE 153
WEST PAWLETT, VT 05775
Phone 802-645-9007
Manager: KATHLEEN HULETT BAILEY
978 ROUTE 153
WEST PAWLETT, VT 05775
Phone 802-645-9007

Airport Operational Statistics

Aircraft based on the field: 1
Single engine airplanes: 1
    

Additional Remarks

FOR CD CTC BOSTON ARTCC AT 603-879-6859.

Instrument Procedures

There are no published instrument procedures at VT60.

Some nearby airports with instrument procedures:

KGFL - Floyd Bennett Memorial Airport (16 nm W)
KRUT - Rutland - Southern Vermont Regional Airport (18 nm NE)
KDDH - William H Morse State Airport (26 nm S)
4V8 - Deerfield Valley Regional Airport (29 nm SE)
KVSF - Hartness State Airport (Springfield) (32 nm E)
 
Loc | Ops | Rwys | IFR | FBO | Links
Com | Nav | Svcs | Stats | Notes
Area around VT60 (Hulett Landing Strip)
 
Road maps at: MapQuest Bing Google
 
Aerial photo
No photo
 
Sectional chart

 
Airport distance calculator
Flying to Hulett Landing Strip? Find the distance to fly.

From to VT60

Sunrise and sunset
Times for 07-Dec-2021
 Local
(UTC-5)
 Zulu
(UTC)
Morning civil twilight06:4011:40
Sunrise07:1312:13
Sunset16:1621:16
Evening civil twilight16:4921:49

Current date and time
Zulu (UTC)  07-Dec-2021 06:20:34
Local (UTC-5)  07-Dec-2021 01:20:34
 
METAR
KGFL 
16nm W 
070553Z AUTO 23010KT 10SM BKN050 OVC060 02/M05 A2980 RMK AO2 SLP096 60000 T00221050 10094 20022 51028
KRUT 
17nm NE 
070556Z AUTO 26008G29KT 220V300 10SM FEW041 02/M06 A2974 RMK AO2 PK WND 25029/0551 SLP071 60008 T00171056 10122 20017 51026 FZRANO $
KDDH 
27nm S 
070554Z AUTO 28012G17KT 10SM CLR 02/M05 A2981 RMK AO2 SLP096 60017 T00171050 10128 20017 51024 $
KVSF 
32nm E 
070554Z AUTO 28012G18KT 260V320 10SM SCT050 03/M06 A2976 RMK AO2 SLP082 60010 T00281061 10106 20022 53035
TAF
KGFL 
16nm W 
070557Z 0706/0806 24010G16KT P6SM VCSH SCT035 BKN050 TEMPO 0706/0708 3SM -SHSN BKN025 OVC035 FM070800 26010G17KT P6SM BKN040 FM071400 27009G15KT P6SM BKN050 FM072300 VRB03KT P6SM SCT050 BKN120
KRUT 
17nm NE 
062215Z 0622/0718 20010G20KT P6SM -RA OVC030 WS020/22040KT TEMPO 0622/0702 3SM RA BR OVC015 FM070200 25013G24KT P6SM VCSH BKN020 FM070400 26014G26KT P6SM BKN040
NOTAMs
Click for the latest NOTAMs
NOTAMs are issued by the DoD/FAA and will open in a separate window not controlled by AirNav.

 

 
 

Would you like to see your business listed on this page?

 If your business provides an interesting product or service to pilots, flight crews, aircraft, or users of the Hulett Landing Strip, you should consider listing it here.  To start the listing process, click on the button below
 
Add a business
 

Other Pages about Hulett Landing Strip

Update a link
 
Copyright © AirNav, LLC. All rights reserved. Privacy Policy  Contact